Weather History for KCKN - April, 2014

Change the Weather History Date:

Tuesday, April 1, 2014

  Actual Average Record
Temperature  
Mean Temperature 11 °F -  
Max Temperature 19 °F 42 °F 71 °F (2012)
Min Temperature 3 °F 25 °F 3 °F (2014)
Degree Days  
Heating Degree Days 54    
Moisture  
Dew Point 7 °F    
Average Humidity 80    
Maximum Humidity 92    
Minimum Humidity 73    
Precipitation  
Precipitation 0.01 in - - ()
Sea Level Pressure  
Sea Level Pressure 30.03 in    
Wind  
Wind Speed 21 mph (NNW)    
Max Wind Speed 29 mph    
Max Gust Speed 34 mph    
Visibility 8 miles    
Events      
Averages and records for this station are not official NWS values.
T = Trace of Precipitation, MM = Missing Value Source: NWS Daily Summary

Daily Weather History Graph

Daily Weather History Graph

Search for Another Location

Airport or City:

Trip Planner

Search our weather history database for the weather conditions in past years. The results will help you decide how hot, cold, wet, or windy it might be!

Date:

Astronomy

Apr. 01, 2014 Rise Set
Actual Time 7:04 AM CDT 7:56 PM CDT
Civil Twilight 6:33 AM CDT 8:28 PM CDT
Nautical Twilight 5:56 AM CDT 9:05 PM CDT
Astronomical Twilight 5:16 AM CDT 9:45 PM CDT
Moon 7:59 AM CDT (4/1) 10:31 PM CDT (4/1)
Length of Visible Light 13h 54m
Length of Day
12h 51m
Waxing Crescent, 5% of the Moon is Illuminated
Apr 1
Waxing Crescent
Apr 7
First Quarter
Apr 15
Full
Apr 22
Last Quarter
Apr 29
New

Hourly Weather History & Observations

Time (CDT) Temp. Windchill Dew Point Humidity Pressure Visibility Wind Dir Wind Speed Gust Speed Precip Events Conditions
12:15 AM 17.6 °F -1.3 °F 14.0 °F 86% 29.86 in - North 27.6 mph 34.5 mph N/A   Unknown
12:35 AM 17.6 °F -1.3 °F 14.0 °F 86% 29.86 in - North 27.6 mph 34.5 mph N/A   Unknown
12:55 AM 17.6 °F -1.6 °F 14.0 °F 86% 29.87 in - North 28.8 mph 34.5 mph N/A   Unknown
1:15 AM - - - N/A% 29.87 in - North 24.2 mph - N/A   Unknown
1:35 AM - - - N/A% 29.88 in - North 21.9 mph - N/A   Unknown
1:55 AM - - - N/A% 29.88 in - North 25.3 mph - N/A   Unknown
2:14 AM 17.6 °F -0.3 °F 12.2 °F 79% 29.89 in - North 24.2 mph 31.1 mph N/A   Overcast
2:35 AM 17.6 °F 0.5 °F 12.2 °F 79% 29.89 in - North 21.9 mph 31.1 mph N/A   Unknown
2:55 AM 15.8 °F -2.7 °F 12.2 °F 86% 29.90 in - North 24.2 mph 29.9 mph N/A   Unknown
3:15 AM 15.8 °F -3.4 °F 12.2 °F 86% 29.90 in - North 26.5 mph - N/A   Unknown
3:35 AM - - - N/A% 29.90 in - North 27.6 mph - N/A   Unknown
3:54 AM 14.0 °F -6.2 °F 10.4 °F 86% 29.91 in - North 27.6 mph 34.5 mph N/A   Overcast
4:15 AM - - - N/A% 29.92 in - North 28.8 mph - N/A   Unknown
4:34 AM 12.2 °F -7.5 °F 10.4 °F 92% 29.92 in - NNW 24.2 mph 31.1 mph N/A   Unknown
4:54 AM 12.2 °F -8.2 °F 8.6 °F 85% 29.93 in - North 26.5 mph - N/A   Unknown
5:15 AM 12.2 °F -8.2 °F 8.6 °F 85% 29.94 in - North 26.5 mph - N/A   Unknown
5:34 AM 10.4 °F -10.7 °F 6.8 °F 85% 29.95 in - North 26.5 mph 34.5 mph N/A   Unknown
5:54 AM 10.4 °F -9.1 °F 6.8 °F 85% 29.96 in - North 21.9 mph 31.1 mph N/A   Unknown
6:15 AM 10.4 °F -10.3 °F 6.8 °F 85% 29.96 in - North 25.3 mph - N/A   Unknown
6:34 AM 10.4 °F -9.9 °F 6.8 °F 85% 29.97 in 3.0 mi North 24.2 mph 28.8 mph N/A   Clear
6:54 AM 8.6 °F -11.4 °F 5.0 °F 85% 29.97 in 4.0 mi North 21.9 mph 27.6 mph N/A   Clear
7:15 AM 8.6 °F -11.9 °F 5.0 °F 85% 29.98 in 4.0 mi North 23.0 mph - N/A   Clear
7:34 AM 8.6 °F -11.9 °F 3.2 °F 79% 29.98 in 2.5 mi North 23.0 mph - N/A   Clear
7:55 AM 8.6 °F -10.5 °F 3.2 °F 79% 29.99 in 3.0 mi North 19.6 mph - N/A   Clear
8:15 AM 8.6 °F -11.4 °F 3.2 °F 79% 30.00 in 7.0 mi NNW 21.9 mph - N/A   Clear
8:34 AM 8.6 °F -11.0 °F 3.2 °F 79% 30.00 in 5.0 mi North 20.7 mph - N/A   Haze
8:55 AM 8.6 °F -11.0 °F 3.2 °F 79% 30.00 in 5.0 mi North 20.7 mph - N/A   Haze
9:14 AM 8.6 °F -11.4 °F 1.4 °F 73% 30.00 in 5.0 mi North 21.9 mph - N/A   Haze
9:34 AM 8.6 °F -11.4 °F 3.2 °F 79% 30.01 in 5.0 mi North 21.9 mph - N/A   Haze
9:55 AM 8.6 °F -10.5 °F 1.4 °F 73% 30.01 in 7.0 mi North 19.6 mph - N/A   Clear
10:14 AM 8.6 °F -11.0 °F 1.4 °F 73% 30.01 in 7.0 mi North 20.7 mph - N/A   Clear
10:35 AM 8.6 °F -11.4 °F 3.2 °F 79% 30.02 in 5.0 mi North 21.9 mph - N/A   Haze
10:54 AM 8.6 °F -11.0 °F 3.2 °F 79% 30.03 in 7.0 mi NNW 20.7 mph - N/A   Clear
11:14 AM 8.6 °F -10.5 °F 3.2 °F 79% 30.04 in 5.0 mi NNW 19.6 mph 24.2 mph N/A   Haze
11:35 AM 10.4 °F -9.1 °F 3.2 °F 73% 30.05 in 5.0 mi NNW 21.9 mph - N/A   Haze
11:54 AM 10.4 °F -8.6 °F 3.2 °F 73% 30.05 in 7.0 mi NNW 20.7 mph - N/A   Clear
12:15 PM 10.4 °F -7.7 °F 5.0 °F 79% 30.05 in 5.0 mi NNW 18.4 mph - N/A   Haze
12:34 PM 12.2 °F -5.3 °F 5.0 °F 73% 30.06 in 7.0 mi NW 18.4 mph 21.9 mph N/A   Clear
12:54 PM 12.2 °F -5.3 °F 6.8 °F 79% 30.06 in 7.0 mi NNW 18.4 mph 24.2 mph N/A   Clear
1:15 PM 12.2 °F -4.3 °F 6.8 °F 79% 30.06 in 7.0 mi NNW 16.1 mph 23.0 mph N/A   Clear
1:34 PM 12.2 °F -3.7 °F 6.8 °F 79% 30.06 in 10.0 mi NNW 15.0 mph - N/A   Clear
1:54 PM 14.0 °F -2.0 °F 6.8 °F 73% 30.07 in 10.0 mi NNW 16.1 mph - N/A   Clear
2:15 PM 15.8 °F -1.5 °F 8.6 °F 73% 30.07 in 10.0 mi NNW 20.7 mph - N/A   Clear
2:34 PM 15.8 °F -0.2 °F 8.6 °F 73% 30.07 in 10.0 mi NNW 17.3 mph - N/A   Clear
2:55 PM 15.8 °F 1.4 °F 8.6 °F 73% 30.08 in 10.0 mi NNW 13.8 mph - N/A   Clear
3:15 PM 17.6 °F 2.2 °F 10.4 °F 73% 30.07 in 10.0 mi North 17.3 mph - N/A   Clear
3:34 PM 17.6 °F 3.7 °F 10.4 °F 73% 30.08 in 10.0 mi NNW 13.8 mph - N/A   Clear
3:55 PM 17.6 °F 3.7 °F 10.4 °F 73% 30.08 in 10.0 mi NNW 13.8 mph - N/A   Clear
4:14 PM 17.6 °F 2.7 °F 12.2 °F 79% 30.08 in 10.0 mi North 16.1 mph - N/A   Clear
4:34 PM 19.4 °F 6.0 °F 12.2 °F 74% 30.09 in 10.0 mi NNW 13.8 mph - N/A   Clear
4:55 PM 19.4 °F 5.5 °F 12.2 °F 74% 30.08 in 10.0 mi North 15.0 mph - N/A   Clear
5:14 PM 19.4 °F 5.0 °F 12.2 °F 74% 30.08 in 10.0 mi North 16.1 mph - N/A   Clear
5:35 PM 19.4 °F 5.5 °F 14.0 °F 80% 30.09 in 10.0 mi North 15.0 mph - N/A   Clear
5:55 PM 19.4 °F 6.0 °F 12.2 °F 74% 30.10 in 10.0 mi North 13.8 mph - N/A   Clear
6:14 PM 17.6 °F 5.7 °F 12.2 °F 79% 30.11 in 10.0 mi North 10.4 mph - N/A   Clear
6:35 PM 17.6 °F 5.7 °F 12.2 °F 79% 30.12 in 10.0 mi North 10.4 mph - N/A   Clear
6:54 PM 17.6 °F 5.0 °F 12.2 °F 79% 30.12 in 10.0 mi North 11.5 mph - N/A   Clear
7:14 PM 17.6 °F 5.0 °F 12.2 °F 79% 30.12 in 10.0 mi North 11.5 mph - N/A   Clear
7:35 PM 15.8 °F 4.2 °F 10.4 °F 79% 30.13 in 10.0 mi North 9.2 mph - N/A   Clear
7:54 PM 12.2 °F 0.7 °F 8.6 °F 85% 30.13 in 10.0 mi North 8.1 mph - N/A   Clear
8:15 PM 12.2 °F 6.1 °F 8.6 °F 85% 30.14 in 10.0 mi North 3.5 mph - N/A   Clear
8:35 PM 10.4 °F - 6.8 °F 85% 30.14 in 10.0 mi Calm Calm - N/A   Clear
8:54 PM 8.6 °F 0.1 °F 3.2 °F 79% 30.15 in 10.0 mi NW 4.6 mph - N/A   Clear
9:15 PM 8.6 °F - 5.0 °F 85% 30.15 in 10.0 mi Calm Calm - 0.01 in   Clear
9:34 PM 8.6 °F 0.1 °F 5.0 °F 85% 30.16 in 10.0 mi WNW 4.6 mph - 0.01 in   Clear
9:55 PM 6.8 °F -3.5 °F 3.2 °F 85% 30.16 in 10.0 mi WNW 5.8 mph - N/A   Clear
10:15 PM 5.0 °F -5.6 °F 3.2 °F 92% 30.16 in 10.0 mi NW 5.8 mph - N/A   Clear
10:34 PM 5.0 °F -4.1 °F 1.4 °F 85% 30.16 in 10.0 mi NW 4.6 mph - N/A   Clear
10:55 PM 6.8 °F - 3.2 °F 85% 30.16 in 10.0 mi Calm Calm - N/A   Clear
11:15 PM 3.2 °F -6.2 °F 1.4 °F 92% 30.16 in 10.0 mi NW 4.6 mph - N/A   Clear
11:34 PM 6.8 °F -0.1 °F 3.2 °F 85% 30.17 in 10.0 mi NNW 3.5 mph - N/A   Clear
11:55 PM 3.2 °F -7.8 °F 1.4 °F 92% 30.17 in 10.0 mi WNW 5.8 mph - N/A   Clear